Time;durP1;ratioP1;P1;durP2;ratioP2;P2;SDS_P1;SDS_P2;PMS_P1;PMS_P2;Temp;Humidity;BMP_temperature;BMP_pressure;BME280_temperature;BME280_humidity;BME280_pressure;Samples;Min_cycle;Max_cycle;Signal;HPM_P1;HPM_P2
2021/09/13 00:04:30;;;;;;;10.00;8.10;;;;;;;19.77;64.56;99000.70;234415;1198;139140;-60
2021/09/13 00:09:34;;;;;;;10.50;8.40;;;;;;;19.72;64.51;98991.33;234355;1197;139975;-59
2021/09/13 00:14:37;;;;;;;11.40;9.20;;;;;;;19.69;64.69;98992.55;234274;1198;139346;-62
2021/09/13 00:19:41;;;;;;;10.70;8.90;;;;;;;19.67;64.67;98988.93;234009;1198;139348;-62
2021/09/13 00:24:44;;;;;;;10.80;9.30;;;;;;;19.66;64.71;98993.57;234052;1198;138640;-62
2021/09/13 00:29:47;;;;;;;11.10;9.00;;;;;;;19.61;64.72;98994.30;234350;1198;138599;-61
2021/09/13 00:34:53;;;;;;;11.20;7.70;;;;;;;19.53;64.70;98990.81;234449;1198;139181;-60
2021/09/13 00:39:58;;;;;;;9.20;7.50;;;;;;;19.51;64.82;98992.48;234172;1198;140561;-60
2021/09/13 00:45:02;;;;;;;13.90;9.10;;;;;;;19.49;64.89;98993.71;233602;1198;138888;-61
2021/09/13 00:50:07;;;;;;;12.50;8.80;;;;;;;19.47;64.91;98994.52;234174;1198;138600;-62
2021/09/13 00:55:10;;;;;;;14.10;10.60;;;;;;;19.41;64.92;98985.52;234183;1198;139468;-63
2021/09/13 01:00:14;;;;;;;14.00;10.90;;;;;;;19.34;65.02;98984.98;234330;1198;139299;-61
2021/09/13 01:05:17;;;;;;;14.40;9.70;;;;;;;19.30;65.12;98984.50;234349;1198;139492;-62
2021/09/13 01:10:22;;;;;;;13.20;9.40;;;;;;;19.27;65.14;98974.55;234319;1198;140764;-60
2021/09/13 01:15:26;;;;;;;15.10;10.80;;;;;;;19.27;65.25;98971.45;234182;1198;139741;-59
2021/09/13 01:20:30;;;;;;;13.30;11.10;;;;;;;19.27;65.50;98968.98;234333;1198;139557;-60
2021/09/13 01:25:37;;;;;;;17.10;12.00;;;;;;;19.28;65.68;98969.20;234304;1198;138863;-60
2021/09/13 01:30:48;;;;;;;16.30;11.90;;;;;;;19.28;65.66;98968.66;234172;1197;139221;-61
2021/09/13 01:35:51;;;;;;;16.20;10.80;;;;;;;19.23;65.73;98963.41;234168;1198;139356;-59
2021/09/13 01:40:54;;;;;;;18.20;11.30;;;;;;;19.18;65.71;98963.39;234155;1197;139643;-61
2021/09/13 01:45:58;;;;;;;22.40;13.70;;;;;;;19.16;65.91;98961.21;234379;1197;139531;-60
2021/09/13 01:51:02;;;;;;;22.80;15.50;;;;;;;19.14;65.87;98961.73;234320;1198;139577;-63
2021/09/13 01:56:05;;;;;;;21.60;15.80;;;;;;;19.06;65.84;98965.77;234394;1198;139458;-61
2021/09/13 02:01:09;;;;;;;24.00;16.80;;;;;;;18.98;66.06;98973.95;233665;1198;138732;-59
2021/09/13 02:06:16;;;;;;;20.30;14.60;;;;;;;18.89;66.14;98976.98;234147;1198;139338;-61
2021/09/13 02:11:20;;;;;;;22.30;15.50;;;;;;;18.84;66.28;98980.41;234159;1198;139612;-60
2021/09/13 02:16:24;;;;;;;20.60;16.10;;;;;;;18.85;66.52;98983.16;234051;1198;139905;-60
2021/09/13 02:21:30;;;;;;;21.30;15.70;;;;;;;18.86;66.69;98980.14;234295;1198;139695;-62
2021/09/13 02:26:34;;;;;;;22.40;15.70;;;;;;;18.90;66.69;98981.60;234221;1195;139297;-62
2021/09/13 02:31:38;;;;;;;21.80;15.30;;;;;;;18.87;66.68;98983.98;233954;1197;139127;-61
2021/09/13 02:36:41;;;;;;;21.40;13.10;;;;;;;18.81;66.71;98983.86;234268;1198;139986;-62
2021/09/13 02:41:45;;;;;;;17.20;13.20;;;;;;;18.82;66.88;98984.20;234160;1198;140071;-60
2021/09/13 02:46:48;;;;;;;19.00;13.80;;;;;;;18.84;66.90;98989.54;234423;1198;139468;-62
2021/09/13 02:51:51;;;;;;;456.70;380.80;;;;;;;18.87;67.12;98985.63;234186;1198;139137;-61
2021/09/13 02:56:54;;;;;;;35.90;27.00;;;;;;;19.04;67.65;98982.67;234085;1199;139279;-64
2021/09/13 03:01:57;;;;;;;147.90;116.40;;;;;;;19.24;67.81;98985.08;233907;1195;139340;-62
2021/09/13 03:07:03;;;;;;;25.90;17.90;;;;;;;19.46;67.61;98987.90;234186;1198;140010;-63
2021/09/13 03:12:07;;;;;;;27.10;18.30;;;;;;;19.53;66.91;98992.29;234141;1198;139730;-61
2021/09/13 03:17:16;;;;;;;22.40;15.90;;;;;;;19.52;66.82;98986.91;234282;1198;139253;-64
2021/09/13 03:22:19;;;;;;;217.20;173.00;;;;;;;19.50;66.62;98992.54;234346;1198;139073;-61
2021/09/13 03:27:22;;;;;;;20.80;15.70;;;;;;;19.47;66.76;98993.75;234362;1198;139141;-60
2021/09/13 03:32:26;;;;;;;24.40;16.00;;;;;;;19.42;66.53;98993.37;234147;1198;139500;-61
2021/09/13 03:37:29;;;;;;;22.80;16.00;;;;;;;19.37;66.57;98996.86;234336;1198;139526;-60
2021/09/13 03:42:32;;;;;;;20.10;15.80;;;;;;;19.32;66.59;98998.15;234194;1198;138677;-62
2021/09/13 03:47:35;;;;;;;22.70;16.50;;;;;;;19.20;66.60;98993.89;233987;1198;139258;-59
2021/09/13 03:52:38;;;;;;;21.80;15.70;;;;;;;19.06;66.55;98999.75;234358;1198;138868;-59
2021/09/13 03:57:41;;;;;;;19.80;15.40;;;;;;;18.97;66.72;99004.80;234047;1198;140367;-63
2021/09/13 04:02:47;;;;;;;24.90;17.90;;;;;;;18.93;66.94;99003.96;233908;1198;140223;-63
2021/09/13 04:13:08;;;;;;;24.00;18.20;;;;;;;18.83;67.05;99003.30;234242;1198;138820;-59
2021/09/13 04:18:18;;;;;;;22.50;15.40;;;;;;;18.79;67.21;99001.55;233867;1198;139553;-62
2021/09/13 04:23:37;;;;;;;20.10;15.40;;;;;;;18.78;67.29;99003.24;233967;1198;140748;-61
2021/09/13 04:29:00;;;;;;;26.10;17.30;;;;;;;18.78;67.31;99005.92;234052;1198;138984;-61
2021/09/13 04:34:21;;;;;;;25.00;17.60;;;;;;;18.76;67.37;99003.94;234275;1198;139022;-61
2021/09/13 04:39:35;;;;;;;29.20;18.90;;;;;;;18.72;67.36;99003.28;234199;1198;138566;-63
2021/09/13 04:45:13;;;;;;;26.30;17.00;;;;;;;18.69;67.67;99008.16;233988;1198;138841;-62
2021/09/13 04:50:35;;;;;;;24.20;16.70;;;;;;;18.72;67.76;99007.27;234427;1198;139564;-62
2021/09/13 04:55:57;;;;;;;29.20;18.30;;;;;;;18.75;67.77;99013.45;234005;1198;139372;-61
2021/09/13 05:01:00;;;;;;;30.90;18.70;;;;;;;18.78;67.82;99023.98;234207;1198;139231;-63
2021/09/13 05:06:04;;;;;;;30.90;18.50;;;;;;;18.77;67.80;99026.73;234103;1198;139258;-60
2021/09/13 05:11:08;;;;;;;26.50;17.90;;;;;;;18.73;68.00;99022.39;234165;1198;139194;-61
2021/09/13 05:16:13;;;;;;;30.40;19.60;;;;;;;18.76;67.81;99026.83;233943;1198;139994;-62
2021/09/13 05:21:17;;;;;;;32.90;21.20;;;;;;;18.78;68.01;99022.30;234014;1198;139400;-61
2021/09/13 05:26:24;;;;;;;34.60;22.70;;;;;;;18.82;68.05;99030.31;234083;1198;139725;-60
2021/09/13 05:31:27;;;;;;;32.70;23.00;;;;;;;18.85;68.04;99033.83;234105;1198;138783;-66
2021/09/13 05:36:31;;;;;;;35.60;21.90;;;;;;;18.84;68.15;99032.89;234000;1198;139217;-62
2021/09/13 05:41:34;;;;;;;28.90;21.50;;;;;;;18.85;68.14;99038.70;234115;1198;140233;-62
2021/09/13 05:46:37;;;;;;;37.80;23.10;;;;;;;18.88;68.24;99042.36;234412;1198;139351;-62
2021/09/13 05:51:45;;;;;;;33.80;24.50;;;;;;;18.94;68.33;99048.44;234219;1198;141751;-62
2021/09/13 05:56:53;;;;;;;36.50;24.50;;;;;;;18.99;68.17;99048.34;234154;1198;139406;-63
2021/09/13 06:01:57;;;;;;;33.70;21.60;;;;;;;18.97;68.15;99055.66;233884;1198;138502;-61
2021/09/13 06:07:01;;;;;;;30.70;21.70;;;;;;;19.00;68.24;99058.98;234160;1198;140099;-62
2021/09/13 06:12:05;;;;;;;38.20;23.40;;;;;;;19.05;68.32;99053.13;234129;1198;140770;-61
2021/09/13 06:17:17;;;;;;;28.90;22.80;;;;;;;19.09;68.31;99054.71;234314;1198;139369;-62
2021/09/13 06:22:20;;;;;;;36.20;23.20;;;;;;;19.13;68.23;99057.70;234254;1198;138844;-62
2021/09/13 06:27:28;;;;;;;32.60;19.90;;;;;;;19.14;68.21;99051.36;233932;1198;140945;-61
2021/09/13 06:32:31;;;;;;;32.80;19.90;;;;;;;19.19;68.26;99050.16;234241;1198;139960;-62
2021/09/13 06:37:37;;;;;;;31.10;21.60;;;;;;;19.29;68.33;99054.52;233710;1198;139157;-61
2021/09/13 06:42:45;;;;;;;30.90;21.10;;;;;;;19.38;68.23;99064.87;233806;1199;139145;-61
2021/09/13 06:47:49;;;;;;;30.00;22.30;;;;;;;19.42;68.27;99059.39;234177;1198;138650;-62
2021/09/13 06:52:55;;;;;;;28.00;19.60;;;;;;;19.48;68.22;99062.37;234065;1197;138629;-61
2021/09/13 06:57:59;;;;;;;33.30;20.90;;;;;;;19.52;68.08;99060.45;234036;1198;139807;-62
2021/09/13 07:03:04;;;;;;;30.50;21.00;;;;;;;19.57;68.18;99067.77;234137;1198;139852;-61
2021/09/13 07:08:10;;;;;;;31.30;22.00;;;;;;;19.66;68.32;99070.77;233928;1197;139186;-63
2021/09/13 07:13:13;;;;;;;34.40;22.70;;;;;;;19.71;68.01;99074.27;233995;1198;139439;-62
2021/09/13 07:18:16;;;;;;;29.60;20.40;;;;;;;19.70;68.06;99079.65;234040;1198;139469;-64
2021/09/13 07:23:20;;;;;;;54.40;21.90;;;;;;;19.76;68.04;99085.81;234175;1198;139664;-64
2021/09/13 07:28:22;;;;;;;35.00;21.00;;;;;;;19.90;68.43;99087.48;233967;1198;138986;-64
2021/09/13 07:33:26;;;;;;;77.30;46.10;;;;;;;20.05;68.40;99087.32;233511;1198;139178;-64
2021/09/13 07:38:30;;;;;;;33.40;23.60;;;;;;;20.17;68.26;99084.70;233845;1198;139323;-64
2021/09/13 07:43:35;;;;;;;343.90;287.30;;;;;;;20.24;68.03;99088.51;234145;1198;138861;-65
2021/09/13 07:48:38;;;;;;;66.60;42.40;;;;;;;20.30;67.90;99087.32;234207;1198;139463;-65
2021/09/13 07:53:41;;;;;;;31.00;18.00;;;;;;;20.41;67.97;99084.80;234177;1195;140047;-64
2021/09/13 07:58:48;;;;;;;24.70;17.70;;;;;;;20.55;67.78;99093.33;233775;1198;139489;-65
2021/09/13 08:03:51;;;;;;;43.90;28.20;;;;;;;20.67;67.58;99100.52;234023;1198;138842;-64
2021/09/13 08:08:54;;;;;;;26.50;17.40;;;;;;;20.73;67.47;99101.90;234160;1198;139228;-65
2021/09/13 08:13:57;;;;;;;36.40;26.40;;;;;;;20.74;67.24;99101.92;234107;1198;139353;-66
2021/09/13 08:19:01;;;;;;;24.90;16.20;;;;;;;20.76;67.07;99102.27;233898;1198;138821;-67
2021/09/13 08:24:04;;;;;;;25.40;18.20;;;;;;;20.79;66.81;99103.02;233854;1198;140913;-65
2021/09/13 08:29:14;;;;;;;27.20;18.10;;;;;;;20.84;66.89;99105.40;234260;1198;140747;-65
2021/09/13 08:34:17;;;;;;;23.10;18.00;;;;;;;20.93;66.87;99113.58;234290;1198;139107;-65
2021/09/13 08:39:20;;;;;;;24.90;18.80;;;;;;;20.96;66.60;99121.44;233938;1198;139621;-64
2021/09/13 08:44:23;;;;;;;21.20;16.70;;;;;;;21.00;66.58;99115.52;234060;1198;139478;-66
2021/09/13 08:49:29;;;;;;;23.30;17.00;;;;;;;21.05;66.59;99117.33;234263;1198;139611;-65
2021/09/13 08:54:36;;;;;;;23.80;17.30;;;;;;;21.10;66.47;99116.52;234333;1198;139627;-64
2021/09/13 08:59:39;;;;;;;23.60;17.30;;;;;;;21.13;66.45;99120.63;234176;1198;138969;-68
2021/09/13 09:04:44;;;;;;;23.50;16.60;;;;;;;21.19;66.31;99116.84;234359;1198;139018;-64
2021/09/13 09:10:06;;;;;;;24.80;15.70;;;;;;;21.27;66.28;99118.47;234226;1198;139139;-64
2021/09/13 09:15:11;;;;;;;23.30;15.70;;;;;;;21.36;66.11;99120.73;234273;1197;140419;-65
2021/09/13 09:20:14;;;;;;;24.60;19.10;;;;;;;21.44;66.10;99117.00;234239;1198;139330;-65
2021/09/13 09:25:26;;;;;;;30.00;21.70;;;;;;;21.49;65.78;99115.59;234294;1198;138947;-65
2021/09/13 09:30:34;;;;;;;29.30;22.20;;;;;;;21.52;65.72;99115.46;234236;1197;139502;-65
2021/09/13 09:35:44;;;;;;;22.10;15.60;;;;;;;21.48;65.57;99116.40;234263;1198;138880;-65
2021/09/13 09:40:58;;;;;;;26.30;18.10;;;;;;;21.49;65.48;99110.58;234268;1198;139704;-64
2021/09/13 09:46:12;;;;;;;22.80;17.50;;;;;;;21.52;65.54;99108.25;234063;1198;140219;-66
2021/09/13 09:51:31;;;;;;;81.20;56.70;;;;;;;21.57;65.56;99109.42;233865;1198;139255;-66
2021/09/13 09:56:34;;;;;;;23.20;16.70;;;;;;;21.60;65.50;99102.54;234024;1198;138796;-68
2021/09/13 10:01:43;;;;;;;22.20;13.80;;;;;;;21.63;65.29;99102.74;234062;1198;139852;-64
2021/09/13 10:07:00;;;;;;;16.80;12.80;;;;;;;21.70;65.23;99099.05;234263;1198;139121;-63
2021/09/13 10:12:04;;;;;;;18.70;12.90;;;;;;;21.83;65.14;99091.89;234202;1197;138495;-64
2021/09/13 10:17:08;;;;;;;14.30;12.10;;;;;;;21.89;64.70;99094.75;234151;1198;139915;-64
2021/09/13 10:22:29;;;;;;;14.30;9.80;;;;;;;21.91;64.49;99093.36;233859;1198;139092;-63
2021/09/13 10:27:46;;;;;;;20.20;12.80;;;;;;;21.98;64.24;99090.61;234202;1198;138806;-66
2021/09/13 10:32:52;;;;;;;18.40;12.30;;;;;;;22.08;64.06;99080.23;234216;1198;140021;-64
2021/09/13 10:37:55;;;;;;;14.20;10.30;;;;;;;22.21;63.93;99076.05;234250;1198;139563;-66
2021/09/13 10:43:16;;;;;;;19.20;13.00;;;;;;;22.35;63.52;99072.52;234187;1198;139249;-63
2021/09/13 10:48:21;;;;;;;15.70;12.50;;;;;;;22.46;63.43;99070.10;233911;1198;139388;-65
2021/09/13 10:53:24;;;;;;;16.40;12.40;;;;;;;22.51;63.10;99064.66;234252;1198;138992;-62
2021/09/13 10:58:31;;;;;;;17.30;11.40;;;;;;;22.57;62.95;99057.95;233690;1197;139648;-64
2021/09/13 11:03:37;;;;;;;16.80;12.70;;;;;;;22.66;62.80;99057.52;233986;1198;139241;-64
2021/09/13 11:08:52;;;;;;;17.50;11.80;;;;;;;22.72;62.57;99056.12;234200;1197;139006;-64
2021/09/13 11:14:11;;;;;;;17.30;10.90;;;;;;;22.72;62.48;99056.67;234118;1198;138904;-63
2021/09/13 11:19:16;;;;;;;15.20;10.30;;;;;;;22.66;62.15;99063.13;234067;1198;138838;-63
2021/09/13 11:24:22;;;;;;;12.50;10.80;;;;;;;22.56;61.74;99066.80;234225;1198;138996;-64
2021/09/13 11:29:46;;;;;;;16.30;10.40;;;;;;;22.48;61.54;99064.80;234348;1198;138634;-65
2021/09/13 11:34:51;;;;;;;14.50;10.40;;;;;;;22.39;61.43;99060.33;234168;1198;138759;-64
2021/09/13 11:40:00;;;;;;;47.00;33.70;;;;;;;22.31;61.50;99060.84;234120;1197;139098;-65
2021/09/13 11:45:07;;;;;;;16.80;11.30;;;;;;;22.28;61.51;99064.11;234255;1198;140010;-63
2021/09/13 11:50:31;;;;;;;18.20;11.60;;;;;;;22.28;61.60;99065.56;233601;1198;141643;-62
2021/09/13 11:55:37;;;;;;;20.90;11.90;;;;;;;22.27;61.60;99052.48;234107;1198;140726;-65
2021/09/13 12:00:40;;;;;;;26.30;12.40;;;;;;;22.28;61.66;99060.51;234146;1195;139303;-66
2021/09/13 12:05:43;;;;;;;22.20;13.90;;;;;;;22.26;61.63;99056.37;234409;1198;139020;-63
2021/09/13 12:10:49;;;;;;;18.10;12.40;;;;;;;22.23;61.55;99051.80;234252;1198;139292;-64
2021/09/13 12:15:55;;;;;;;28.90;18.40;;;;;;;22.21;61.48;99052.59;234271;1198;139456;-63
2021/09/13 12:20:59;;;;;;;19.00;13.50;;;;;;;22.18;61.43;99049.97;234136;1198;138881;-63
2021/09/13 12:26:06;;;;;;;16.70;12.10;;;;;;;22.14;61.41;99040.50;234216;1198;138952;-63
2021/09/13 12:31:11;;;;;;;19.40;12.60;;;;;;;22.17;61.46;99041.27;234143;1197;139305;-63
2021/09/13 12:36:21;;;;;;;16.90;11.90;;;;;;;22.32;61.56;99037.46;234209;1198;138728;-63
2021/09/13 12:41:37;;;;;;;14.80;10.70;;;;;;;22.63;61.50;99036.88;234260;1198;138872;-63
2021/09/13 12:46:46;;;;;;;12.30;9.60;;;;;;;22.93;61.13;99027.11;234093;1198;138781;-66
2021/09/13 12:51:58;;;;;;;12.30;7.90;;;;;;;23.24;60.31;99024.53;234053;1198;138484;-64
2021/09/13 12:57:03;;;;;;;14.50;7.60;;;;;;;23.55;59.56;99018.80;234148;1197;140615;-66
2021/09/13 13:02:15;;;;;;;61.20;40.40;;;;;;;23.80;58.91;99016.54;234273;1198;139553;-63
2021/09/13 13:07:19;;;;;;;11.30;7.70;;;;;;;24.05;57.97;99016.91;234251;1198;139136;-66
2021/09/13 13:12:22;;;;;;;17.80;8.20;;;;;;;24.27;57.55;99018.96;234322;1198;139558;-62
2021/09/13 13:17:31;;;;;;;9.50;7.50;;;;;;;24.45;57.13;99012.54;234108;1198;138654;-62
2021/09/13 13:22:34;;;;;;;12.90;7.10;;;;;;;24.55;56.78;99014.89;234190;1198;139297;-63
2021/09/13 13:27:37;;;;;;;11.00;7.40;;;;;;;24.59;56.25;99015.70;234166;1198;138978;-63
2021/09/13 13:32:41;;;;;;;12.10;7.40;;;;;;;24.48;55.89;99011.42;233944;1198;138706;-63
2021/09/13 13:37:44;;;;;;;7.40;6.60;;;;;;;24.33;55.57;99006.67;234003;1198;139161;-68
2021/09/13 13:42:47;;;;;;;12.00;7.60;;;;;;;24.21;55.63;99011.60;234324;1197;138406;-62
2021/09/13 13:47:52;;;;;;;15.70;8.10;;;;;;;24.09;55.43;99015.72;234467;1197;139076;-63
2021/09/13 13:52:55;;;;;;;;;;;;;;;24.09;55.70;99009.77;234166;1198;141306;-67
2021/09/13 13:57:59;;;;;;;16.70;8.90;;;;;;;24.06;55.71;99010.77;234353;1198;125977;-66
2021/09/13 14:03:01;;;;;;;11.50;8.60;;;;;;;23.97;55.59;99015.55;234308;1198;138651;-65
2021/09/13 14:08:05;;;;;;;9.30;7.80;;;;;;;23.90;55.76;99015.83;234339;1197;140112;-63
2021/09/13 14:13:08;;;;;;;16.20;9.40;;;;;;;23.85;55.65;99016.70;234140;1198;139015;-63
2021/09/13 14:18:11;;;;;;;9.50;7.10;;;;;;;23.62;55.37;99024.51;234338;1195;138865;-64
2021/09/13 14:23:14;;;;;;;12.30;7.40;;;;;;;23.36;55.84;99034.05;234432;1197;138773;-64
2021/09/13 14:28:17;;;;;;;8.90;6.90;;;;;;;23.22;56.11;99042.70;234264;1197;139547;-63
2021/09/13 14:33:20;;;;;;;8.60;7.30;;;;;;;23.08;56.24;99041.36;234280;1198;138869;-65
2021/09/13 14:38:23;;;;;;;11.10;7.30;;;;;;;22.96;56.40;99040.92;234363;1198;138921;-64
2021/09/13 14:43:27;;;;;;;11.60;8.10;;;;;;;22.86;56.58;99036.42;233820;1198;139614;-64
2021/09/13 14:48:30;;;;;;;10.50;8.10;;;;;;;22.77;56.79;99045.02;234154;1196;138874;-64
2021/09/13 14:53:34;;;;;;;12.70;9.20;;;;;;;22.69;56.87;99048.30;234316;1197;141123;-65
2021/09/13 14:58:37;;;;;;;16.70;12.40;;;;;;;22.61;56.87;99045.16;234345;1195;138802;-62
2021/09/13 15:03:40;;;;;;;15.90;10.50;;;;;;;22.59;56.99;99052.55;234276;1197;139410;-64
2021/09/13 15:08:43;;;;;;;16.40;10.30;;;;;;;22.53;57.17;99054.22;234273;1198;138653;-63
2021/09/13 15:13:46;;;;;;;11.70;9.50;;;;;;;22.52;57.57;99061.10;234177;1198;138562;-63
2021/09/13 15:18:50;;;;;;;12.70;9.20;;;;;;;22.49;57.68;99057.98;234260;1198;138466;-64
2021/09/13 15:23:53;;;;;;;13.50;10.20;;;;;;;22.47;57.76;99060.61;234179;1198;139060;-62
2021/09/13 15:28:56;;;;;;;11.10;8.10;;;;;;;22.44;57.85;99059.17;234218;1197;139217;-63
2021/09/13 15:33:59;;;;;;;12.60;9.10;;;;;;;22.44;57.81;99057.98;234165;1198;138981;-65
2021/09/13 15:39:02;;;;;;;13.60;9.00;;;;;;;22.40;57.84;99063.42;234270;1198;140938;-64
2021/09/13 15:44:05;;;;;;;10.90;8.90;;;;;;;22.34;57.87;99064.67;234306;1198;139264;-62
2021/09/13 15:49:08;;;;;;;11.50;9.50;;;;;;;22.28;57.95;99063.35;234325;1198;139402;-62
2021/09/13 15:54:11;;;;;;;10.50;9.40;;;;;;;22.22;57.92;99063.11;234342;1197;139506;-62
2021/09/13 15:59:15;;;;;;;10.30;9.10;;;;;;;22.15;58.14;99068.21;234464;1196;139560;-63
2021/09/13 16:04:18;;;;;;;10.60;8.30;;;;;;;22.06;58.26;99070.25;234178;1198;139192;-63
2021/09/13 16:09:22;;;;;;;12.90;8.30;;;;;;;22.01;58.41;99063.08;234240;1198;139420;-64
2021/09/13 16:14:27;;;;;;;11.10;9.90;;;;;;;22.01;58.61;99058.73;234373;1198;140170;-63
2021/09/13 16:19:30;;;;;;;12.10;9.60;;;;;;;22.08;58.65;99068.63;234340;1198;139184;-64
2021/09/13 16:24:37;;;;;;;17.70;9.90;;;;;;;22.12;58.68;99073.04;234297;1198;139939;-64
2021/09/13 16:29:40;;;;;;;16.50;9.90;;;;;;;22.13;58.60;99069.55;234349;1198;139231;-63
2021/09/13 16:34:43;;;;;;;11.20;9.60;;;;;;;22.10;58.46;99066.19;234305;1197;139644;-64
2021/09/13 16:39:47;;;;;;;10.10;8.80;;;;;;;22.07;58.46;99070.89;234259;1198;139754;-62
2021/09/13 16:44:50;;;;;;;63.90;47.00;;;;;;;22.05;58.25;99076.43;234110;1198;139350;-62
2021/09/13 16:49:53;;;;;;;47.30;35.70;;;;;;;22.01;58.42;99078.98;234136;1198;139954;-62
2021/09/13 16:54:57;;;;;;;40.00;31.40;;;;;;;21.96;58.39;99080.61;234113;1197;139328;-61
2021/09/13 17:00:00;;;;;;;30.40;22.10;;;;;;;21.89;58.52;99080.06;234088;1198;138430;-64
2021/09/13 17:05:04;;;;;;;36.20;24.00;;;;;;;21.83;58.65;99080.96;234149;1198;139649;-63
2021/09/13 17:10:07;;;;;;;32.50;22.90;;;;;;;21.76;58.76;99089.23;233818;1198;139154;-63
2021/09/13 17:15:11;;;;;;;22.80;13.90;;;;;;;21.70;58.75;99087.20;234023;1198;139139;-63
2021/09/13 17:20:16;;;;;;;16.60;12.80;;;;;;;21.66;58.75;99095.38;234190;1198;139665;-65
2021/09/13 17:25:21;;;;;;;19.90;12.20;;;;;;;21.60;58.63;99107.08;233697;1198;139288;-66
2021/09/13 17:30:24;;;;;;;20.90;12.60;;;;;;;21.52;58.67;99109.85;234166;1198;139162;-62
2021/09/13 17:35:27;;;;;;;232.40;196.10;;;;;;;21.41;58.70;99112.64;234136;1197;139054;-62
2021/09/13 17:40:30;;;;;;;35.60;21.00;;;;;;;21.33;59.01;99116.36;234202;1198;139819;-62
2021/09/13 17:45:33;;;;;;;22.40;13.20;;;;;;;21.28;59.16;99116.17;234286;1198;139107;-62
2021/09/13 17:50:37;;;;;;;22.70;13.00;;;;;;;21.20;59.13;99127.80;234226;1198;138693;-63
2021/09/13 17:55:40;;;;;;;23.00;13.20;;;;;;;21.13;59.26;99133.98;234281;1198;139036;-64
2021/09/13 18:00:43;;;;;;;28.60;17.50;;;;;;;21.04;59.30;99131.16;234095;1198;139243;-63
2021/09/13 18:05:46;;;;;;;85.80;61.40;;;;;;;20.95;59.46;99135.54;234264;1198;138840;-62
2021/09/13 18:10:49;;;;;;;25.10;16.40;;;;;;;20.89;59.55;99134.89;234082;1198;138876;-64
2021/09/13 18:15:53;;;;;;;25.20;15.10;;;;;;;20.76;59.52;99134.02;234310;1198;138548;-61
2021/09/13 18:20:56;;;;;;;20.20;14.90;;;;;;;20.63;59.52;99143.61;234225;1198;138762;-62
2021/09/13 18:25:59;;;;;;;230.40;181.30;;;;;;;20.52;59.69;99146.41;234286;1198;139484;-61
2021/09/13 18:31:04;;;;;;;30.50;20.50;;;;;;;20.46;59.81;99144.13;234279;1197;139278;-63
2021/09/13 18:36:07;;;;;;;17.00;10.90;;;;;;;20.37;59.93;99143.02;234428;1195;139079;-62
2021/09/13 18:41:11;;;;;;;12.90;10.30;;;;;;;20.29;60.01;99143.45;233839;1198;140161;-62
2021/09/13 18:46:14;;;;;;;21.40;11.10;;;;;;;20.24;60.14;99149.20;233960;1198;139490;-62
2021/09/13 18:51:21;;;;;;;14.30;11.30;;;;;;;20.21;60.10;99147.34;234183;1197;139808;-60
2021/09/13 18:56:25;;;;;;;15.60;12.20;;;;;;;20.18;60.24;99153.12;234068;1198;139120;-65
2021/09/13 19:01:29;;;;;;;16.70;11.20;;;;;;;20.12;60.13;99154.58;233967;1198;139235;-61
2021/09/13 19:06:33;;;;;;;16.20;12.20;;;;;;;20.02;60.31;99158.03;234277;1198;140476;-61
2021/09/13 19:11:36;;;;;;;19.30;12.20;;;;;;;19.93;60.31;99159.30;234336;1198;139140;-63
2021/09/13 19:16:44;;;;;;;17.90;13.00;;;;;;;19.84;60.47;99164.91;234255;1197;139128;-62
2021/09/13 19:21:48;;;;;;;19.30;11.30;;;;;;;19.73;60.54;99165.65;234004;1198;138937;-61
2021/09/13 19:26:52;;;;;;;14.90;11.10;;;;;;;19.65;60.83;99170.20;233879;1198;140066;-60
2021/09/13 19:31:55;;;;;;;19.50;11.80;;;;;;;19.59;61.07;99171.23;234164;1198;140895;-59
2021/09/13 19:36:58;;;;;;;20.10;12.60;;;;;;;19.53;61.27;99171.86;234089;1198;139254;-60
2021/09/13 19:42:02;;;;;;;18.80;12.30;;;;;;;19.46;61.59;99175.98;234220;1198;139958;-63
2021/09/13 19:47:05;;;;;;;23.70;13.30;;;;;;;19.37;61.73;99179.67;234123;1198;139248;-62
2021/09/13 19:52:13;;;;;;;21.00;13.60;;;;;;;19.29;61.86;99183.71;233557;1198;139261;-60
2021/09/13 19:57:17;;;;;;;20.40;11.20;;;;;;;19.21;62.15;99185.59;233794;1198;139378;-61
2021/09/13 20:02:21;;;;;;;19.30;11.50;;;;;;;19.14;62.20;99187.10;233362;1198;140058;-62
2021/09/13 20:07:25;;;;;;;20.30;12.60;;;;;;;19.13;62.55;99187.97;234082;1198;139666;-62
2021/09/13 20:12:28;;;;;;;21.20;13.40;;;;;;;19.13;62.81;99186.52;234162;1198;140599;-62
2021/09/13 20:17:31;;;;;;;22.10;13.10;;;;;;;19.10;63.01;99186.41;234269;1198;139036;-61
2021/09/13 20:22:33;;;;;;;23.40;13.40;;;;;;;19.07;63.06;99185.14;233874;1198;139382;-63
2021/09/13 20:27:37;;;;;;;19.50;11.70;;;;;;;19.01;63.21;99188.34;233883;1198;139334;-62
2021/09/13 20:32:40;;;;;;;17.60;11.50;;;;;;;18.98;63.43;99190.46;234177;1198;139647;-63
2021/09/13 20:37:43;;;;;;;20.10;13.00;;;;;;;18.98;63.59;99197.63;233997;1198;139843;-64
2021/09/13 20:42:47;;;;;;;418.50;299.50;;;;;;;18.99;63.73;99195.43;234251;1198;138813;-62
2021/09/13 20:47:49;;;;;;;37.10;17.70;;;;;;;19.05;63.89;99196.23;234375;1197;139163;-62
2021/09/13 20:52:53;;;;;;;32.60;14.10;;;;;;;19.10;63.65;99198.97;234217;1198;138531;-61
2021/09/13 20:57:59;;;;;;;30.80;13.60;;;;;;;19.12;63.53;99197.90;234067;1198;138972;-61
2021/09/13 21:03:02;;;;;;;41.30;12.60;;;;;;;19.11;63.30;99200.14;234064;1198;139005;-62
2021/09/13 21:08:07;;;;;;;31.30;12.40;;;;;;;19.11;63.29;99198.88;234102;1198;140216;-61
2021/09/13 21:13:10;;;;;;;27.10;11.90;;;;;;;19.15;63.30;99199.06;234217;1198;139613;-63
2021/09/13 21:18:16;;;;;;;21.30;12.40;;;;;;;19.20;63.06;99201.49;234255;1198;139585;-62
2021/09/13 21:23:20;;;;;;;21.70;11.20;;;;;;;19.23;63.03;99204.98;233961;1198;139140;-61
2021/09/13 21:28:23;;;;;;;18.40;10.80;;;;;;;19.23;62.89;99202.30;233979;1198;139312;-61
2021/09/13 21:33:27;;;;;;;16.70;10.60;;;;;;;19.20;62.74;99204.02;234215;1198;139230;-60
2021/09/13 21:38:30;;;;;;;15.70;10.70;;;;;;;19.17;62.68;99207.48;234257;1198;139558;-60
2021/09/13 21:43:33;;;;;;;17.00;11.10;;;;;;;19.13;62.61;99209.32;234142;1198;139809;-61
2021/09/13 21:48:36;;;;;;;14.50;9.80;;;;;;;19.07;62.49;99207.06;233911;1198;141505;-63
2021/09/13 21:53:40;;;;;;;13.40;9.60;;;;;;;19.03;62.53;99205.86;234228;1198;139320;-66
2021/09/13 21:58:42;;;;;;;17.30;10.20;;;;;;;19.03;62.66;99202.92;234188;1198;139454;-65
2021/09/13 22:03:45;;;;;;;92.40;60.90;;;;;;;19.05;62.67;99204.17;233485;1196;138398;-61
2021/09/13 22:08:55;;;;;;;15.40;10.00;;;;;;;19.10;62.56;99205.33;233904;1198;138514;-63
2021/09/13 22:13:58;;;;;;;17.80;9.80;;;;;;;19.10;62.32;99208.39;234229;1198;139031;-64
2021/09/13 22:19:01;;;;;;;13.70;9.20;;;;;;;19.07;62.16;99212.95;234017;1198;139126;-64
2021/09/13 22:24:04;;;;;;;15.40;9.60;;;;;;;19.01;62.03;99210.30;234243;1198;140026;-64
2021/09/13 22:29:07;;;;;;;11.60;8.30;;;;;;;18.93;62.03;99213.81;234150;1198;140739;-63
2021/09/13 22:34:10;;;;;;;14.70;8.60;;;;;;;18.87;61.88;99212.34;234096;1198;139015;-62
2021/09/13 22:39:14;;;;;;;14.40;8.90;;;;;;;18.84;61.80;99215.70;234288;1198;138709;-63
2021/09/13 22:44:17;;;;;;;13.10;7.00;;;;;;;18.83;61.84;99219.39;233872;1198;139035;-64
2021/09/13 22:49:20;;;;;;;10.50;7.80;;;;;;;18.80;61.89;99221.31;234174;1198;139562;-64
2021/09/13 22:54:23;;;;;;;13.30;7.50;;;;;;;18.80;61.92;99219.84;234220;1198;140258;-63
2021/09/13 22:59:26;;;;;;;10.90;7.10;;;;;;;18.79;61.94;99215.30;234375;1198;139143;-65
2021/09/13 23:04:29;;;;;;;11.70;7.40;;;;;;;18.82;61.97;99218.73;234095;1198;138718;-64